createdAt,value
2017-12-25T00:02:10.749Z,1.80
2017-12-25T00:04:36.630Z,2.10
2017-12-25T00:07:02.564Z,2.03
2017-12-25T00:09:28.376Z,1.60
2017-12-25T00:11:54.551Z,2.57
2017-12-25T00:14:24.019Z,2.55
2017-12-25T00:16:49.920Z,2.30
2017-12-25T00:19:15.858Z,1.47
2017-12-25T00:21:41.738Z,1.90
2017-12-25T00:24:07.645Z,1.90
2017-12-25T00:26:34.010Z,1.63
2017-12-25T00:28:59.858Z,2.00
2017-12-25T00:31:28.659Z,1.83
2017-12-25T00:36:49.064Z,2.00
2017-12-25T00:39:14.935Z,2.22
2017-12-25T00:41:40.908Z,1.40
2017-12-25T00:44:06.799Z,1.92
2017-12-25T00:46:32.684Z,2.00
2017-12-25T00:48:58.579Z,2.03
2017-12-25T00:51:24.441Z,2.50
2017-12-25T00:53:50.324Z,1.80
2017-12-25T00:56:16.188Z,2.00
2017-12-25T00:58:48.156Z,2.17
2017-12-25T01:01:14.069Z,2.33
2017-12-25T01:03:39.915Z,2.23
2017-12-25T01:06:05.816Z,1.73
2017-12-25T01:08:31.663Z,2.00
2017-12-25T01:10:57.545Z,2.07
2017-12-25T01:13:23.384Z,2.10
2017-12-25T01:15:49.264Z,2.40
2017-12-25T01:18:15.118Z,2.50
2017-12-25T01:20:41.013Z,1.93
2017-12-25T01:23:07.000Z,2.00
2017-12-25T01:25:32.896Z,2.53
2017-12-25T01:27:58.832Z,2.20
2017-12-25T01:30:24.718Z,1.80
2017-12-25T01:32:50.593Z,2.17
2017-12-25T01:35:16.489Z,2.00
2017-12-25T01:37:42.382Z,1.90
2017-12-25T01:40:08.250Z,1.83
2017-12-25T01:42:34.271Z,1.63
2017-12-25T01:45:00.124Z,1.87
2017-12-25T01:47:25.997Z,1.73
2017-12-25T01:49:54.439Z,1.47
2017-12-25T01:52:20.289Z,2.47
2017-12-25T01:54:49.562Z,2.10
2017-12-25T02:00:34.206Z,2.05
2017-12-25T02:03:00.087Z,2.25
2017-12-25T02:05:28.927Z,1.83
2017-12-25T02:11:02.204Z,1.83
2017-12-25T02:13:28.084Z,2.07
2017-12-25T02:15:53.945Z,2.40
2017-12-25T02:18:19.816Z,1.63
2017-12-25T02:20:45.683Z,1.90
2017-12-25T02:23:11.533Z,1.90
2017-12-25T02:25:39.325Z,2.10
2017-12-25T02:28:05.189Z,2.00
2017-12-25T02:30:31.016Z,1.70
2017-12-25T02:32:57.173Z,2.10
2017-12-25T02:35:23.042Z,1.87
2017-12-25T02:37:50.860Z,2.20
2017-12-25T02:40:16.724Z,2.62
2017-12-25T02:42:46.375Z,2.10
2017-12-25T02:45:12.222Z,2.22
2017-12-25T02:47:41.453Z,2.00
2017-12-25T02:50:07.321Z,2.33
2017-12-25T02:52:34.573Z,2.30
2017-12-25T02:55:00.431Z,2.70
2017-12-25T02:57:29.767Z,2.50
2017-12-25T02:59:55.632Z,2.20
2017-12-25T03:02:24.090Z,2.47
2017-12-25T03:04:49.991Z,3.30
2017-12-25T03:07:15.865Z,2.93
2017-12-25T03:09:41.710Z,3.50
2017-12-25T03:12:07.568Z,2.87
2017-12-25T03:14:35.902Z,2.77
2017-12-25T03:17:01.755Z,2.47
2017-12-25T03:19:31.022Z,3.00
2017-12-25T03:21:56.881Z,2.50
2017-12-25T03:24:25.944Z,2.80
2017-12-25T03:26:51.799Z,3.65
2017-12-25T03:29:21.134Z,3.37
2017-12-25T03:31:46.980Z,2.60
2017-12-25T03:34:14.515Z,2.90
2017-12-25T03:36:40.346Z,3.15
2017-12-25T03:39:09.700Z,3.10
2017-12-25T03:41:35.532Z,3.25
2017-12-25T03:44:01.384Z,3.87
2017-12-25T03:46:27.257Z,3.30
2017-12-25T03:48:53.134Z,2.70
2017-12-25T03:51:21.802Z,3.00
2017-12-25T03:53:47.608Z,3.70
2017-12-25T03:56:15.714Z,3.07
2017-12-25T03:58:41.561Z,3.33
2017-12-25T04:01:11.168Z,3.70
2017-12-25T04:03:37.049Z,3.55
2017-12-25T04:06:05.879Z,3.07
2017-12-25T04:08:31.725Z,4.30
2017-12-25T04:10:59.819Z,3.47
2017-12-25T04:13:25.665Z,3.28
2017-12-25T04:15:54.265Z,3.67
2017-12-25T04:18:20.171Z,3.83
2017-12-25T04:20:46.006Z,3.53
2017-12-25T04:23:11.844Z,4.43
2017-12-25T04:25:37.713Z,3.47
2017-12-25T04:28:06.126Z,3.40
2017-12-25T04:30:31.968Z,3.70
2017-12-25T04:33:00.359Z,3.43
2017-12-25T04:35:26.256Z,3.70
2017-12-25T04:40:23.142Z,2.45
2017-12-25T04:42:52.234Z,3.20
2017-12-25T04:45:18.106Z,3.33
2017-12-25T04:47:45.506Z,3.30
2017-12-25T04:50:11.395Z,3.72
2017-12-25T04:52:40.635Z,3.10
2017-12-25T04:55:06.485Z,3.70
2017-12-25T04:57:32.348Z,3.90
2017-12-25T04:59:58.222Z,4.17
2017-12-25T05:02:24.075Z,3.70
2017-12-25T05:04:51.762Z,3.93
2017-12-25T05:07:17.653Z,3.60
2017-12-25T05:09:47.151Z,3.80
2017-12-25T05:12:13.039Z,3.92
2017-12-25T05:14:41.074Z,3.53
2017-12-25T05:17:06.921Z,4.07
2017-12-25T05:19:35.806Z,3.90
2017-12-25T05:22:01.661Z,3.95
2017-12-25T05:24:31.069Z,4.07
2017-12-25T05:26:57.868Z,4.40
2017-12-25T05:29:26.803Z,5.28
2017-12-25T05:31:52.703Z,4.62
2017-12-25T05:34:18.541Z,4.67
2017-12-25T05:36:44.383Z,4.83
2017-12-25T05:39:10.296Z,4.27
2017-12-25T05:41:37.197Z,5.00
2017-12-25T05:44:03.067Z,4.15
2017-12-25T05:46:32.043Z,3.60
2017-12-25T05:48:57.917Z,3.92
2017-12-25T05:51:27.277Z,4.90
2017-12-25T05:53:53.191Z,4.25
2017-12-25T05:56:21.077Z,4.37
2017-12-25T05:58:46.932Z,4.78
2017-12-25T06:01:15.637Z,4.57
2017-12-25T06:03:41.482Z,4.25
2017-12-25T06:06:10.870Z,4.00
2017-12-25T06:08:36.741Z,3.87
2017-12-25T06:11:02.641Z,4.83
2017-12-25T06:13:28.474Z,5.00
2017-12-25T06:15:54.312Z,4.17
2017-12-25T06:18:21.923Z,4.57
2017-12-25T06:20:47.798Z,4.75
2017-12-25T06:23:16.679Z,4.13
2017-12-25T06:25:42.545Z,5.03
2017-12-25T06:28:11.952Z,5.60
2017-12-25T06:30:37.816Z,4.93
2017-12-25T06:33:06.248Z,4.50
2017-12-25T06:35:32.127Z,3.85
2017-12-25T06:38:01.399Z,4.17
2017-12-25T06:40:27.281Z,4.55
2017-12-25T06:42:56.409Z,4.60
2017-12-25T06:45:22.280Z,5.47
2017-12-25T06:47:48.179Z,5.10
2017-12-25T06:50:14.040Z,5.07
2017-12-25T06:52:39.896Z,5.57
2017-12-25T06:55:07.643Z,5.00
2017-12-25T06:57:33.487Z,4.85
2017-12-25T07:00:02.594Z,4.60
2017-12-25T07:02:28.451Z,5.82
2017-12-25T07:04:56.905Z,5.77
2017-12-25T07:07:22.759Z,4.85
2017-12-25T07:09:52.785Z,5.07
2017-12-25T07:12:18.593Z,6.47
2017-12-25T07:14:46.228Z,5.27
2017-12-25T07:17:12.097Z,5.47
2017-12-25T07:19:43.085Z,6.10
2017-12-25T07:22:08.934Z,6.00
2017-12-25T07:24:34.907Z,6.53
2017-12-25T07:27:04.395Z,5.80
2017-12-25T07:29:30.207Z,6.65
2017-12-25T07:31:56.030Z,5.37
2017-12-25T07:34:21.885Z,4.77
2017-12-25T07:36:47.714Z,6.10
2017-12-25T07:39:13.632Z,5.47
2017-12-25T07:41:43.120Z,6.07
2017-12-25T07:44:08.970Z,6.45
2017-12-25T07:46:38.250Z,5.50
2017-12-25T07:49:04.095Z,5.62
2017-12-25T07:51:33.288Z,6.20
2017-12-25T07:53:59.134Z,6.95
2017-12-25T07:56:26.612Z,5.87
2017-12-25T07:58:52.464Z,6.15
2017-12-25T08:01:18.261Z,5.60
2017-12-25T08:03:44.078Z,5.27
2017-12-25T08:06:09.886Z,6.80
2017-12-25T08:08:39.064Z,5.23
2017-12-25T08:11:04.871Z,6.40
2017-12-25T08:13:34.018Z,6.30
2017-12-25T08:15:59.857Z,5.85
2017-12-25T08:18:27.656Z,5.20
2017-12-25T08:20:53.547Z,14.57
2017-12-25T08:23:22.924Z,7.47
2017-12-25T08:25:48.769Z,5.90
2017-12-25T08:28:17.809Z,6.20
2017-12-25T08:30:43.667Z,5.75
2017-12-25T08:33:13.129Z,6.03
2017-12-25T08:35:38.964Z,7.37
2017-12-25T08:38:04.804Z,6.80
2017-12-25T08:40:30.703Z,5.70
2017-12-25T08:42:56.536Z,6.80
2017-12-25T08:45:23.373Z,8.20
2017-12-25T08:47:49.228Z,7.55
2017-12-25T08:50:18.310Z,5.97
2017-12-25T08:52:44.194Z,7.37
2017-12-25T08:55:12.894Z,7.13
2017-12-25T08:57:38.732Z,6.37
2017-12-25T09:00:07.380Z,6.83
2017-12-25T09:02:33.214Z,7.37
2017-12-25T09:05:02.217Z,8.43
2017-12-25T09:07:28.078Z,7.75
2017-12-25T09:09:56.713Z,8.40
2017-12-25T09:12:22.531Z,7.50
2017-12-25T09:14:48.390Z,8.83
2017-12-25T09:17:14.193Z,9.87
2017-12-25T09:19:40.040Z,8.63
2017-12-25T09:22:10.112Z,9.67
2017-12-25T09:24:35.932Z,9.18
2017-12-25T09:27:03.727Z,8.03
2017-12-25T09:29:29.540Z,8.98
2017-12-25T09:31:58.518Z,8.63
2017-12-25T09:34:24.357Z,9.98
2017-12-25T09:36:53.637Z,9.00
2017-12-25T09:39:19.502Z,7.93
2017-12-25T09:41:48.891Z,9.97
2017-12-25T09:44:14.769Z,8.55
2017-12-25T09:46:44.037Z,11.10
2017-12-25T09:49:09.849Z,11.02
2017-12-25T09:51:35.698Z,11.03
2017-12-25T09:54:01.521Z,9.30
2017-12-25T09:56:27.380Z,8.80
2017-12-25T09:58:54.048Z,7.47
2017-12-25T10:01:19.913Z,10.15
2017-12-25T10:03:48.898Z,9.10
2017-12-25T10:06:14.716Z,9.30
2017-12-25T10:08:44.951Z,9.77
2017-12-25T10:11:10.756Z,7.53
2017-12-25T10:13:40.127Z,7.37
2017-12-25T10:16:05.973Z,8.00
2017-12-25T10:18:33.210Z,7.60
2017-12-25T10:20:59.076Z,7.37
2017-12-25T10:23:28.202Z,5.63
2017-12-25T10:25:54.044Z,6.40
2017-12-25T10:28:19.916Z,7.70
2017-12-25T10:30:45.774Z,7.30
2017-12-25T10:33:11.640Z,6.37
2017-12-25T10:35:40.404Z,6.37
2017-12-25T10:38:06.228Z,7.07
2017-12-25T10:40:35.036Z,6.53
2017-12-25T10:43:00.908Z,6.45
2017-12-25T10:45:28.922Z,8.50
2017-12-25T10:47:54.761Z,6.50
2017-12-25T10:50:23.372Z,8.70
2017-12-25T10:52:49.214Z,6.62
2017-12-25T10:55:18.341Z,7.90
2017-12-25T10:57:44.187Z,6.15
2017-12-25T11:00:13.548Z,6.47
2017-12-25T11:02:39.431Z,5.85
2017-12-25T11:05:05.293Z,5.97
2017-12-25T11:07:31.111Z,7.50
2017-12-25T11:09:56.950Z,6.50
2017-12-25T11:12:26.353Z,6.80
2017-12-25T11:14:52.207Z,6.05
2017-12-25T11:17:21.090Z,6.17
2017-12-25T11:19:46.964Z,5.22
2017-12-25T11:22:14.266Z,4.07
2017-12-25T11:24:40.057Z,4.65
2017-12-25T11:27:08.557Z,5.77
2017-12-25T11:29:34.359Z,5.07
2017-12-25T11:32:00.924Z,5.50
2017-12-25T11:34:28.866Z,6.07
2017-12-25T11:36:58.146Z,5.20
2017-12-25T11:39:24.055Z,5.97
2017-12-25T11:41:49.916Z,4.97
2017-12-25T11:44:15.775Z,5.60
2017-12-25T11:46:41.643Z,4.90
2017-12-25T11:49:10.616Z,3.17
2017-12-25T11:51:36.438Z,4.12
2017-12-25T11:54:04.574Z,4.13
2017-12-25T11:56:30.438Z,3.58
2017-12-25T11:58:59.750Z,3.73
2017-12-25T12:01:25.589Z,3.20
2017-12-25T12:03:55.239Z,3.87
2017-12-25T12:06:21.070Z,3.72
2017-12-25T12:08:49.806Z,3.00
2017-12-25T12:11:15.640Z,3.62
2017-12-25T12:13:45.016Z,3.27
2017-12-25T12:16:10.885Z,3.10
2017-12-25T12:18:36.771Z,3.23
2017-12-25T12:21:02.603Z,3.13
2017-12-25T12:23:28.496Z,3.20
2017-12-25T12:25:56.192Z,4.10
2017-12-25T12:28:21.994Z,3.60
2017-12-25T12:30:49.799Z,4.13
2017-12-25T12:33:15.625Z,3.67
2017-12-25T12:35:44.313Z,3.53
2017-12-25T12:38:10.161Z,3.78
2017-12-25T12:43:07.010Z,4.50
2017-12-25T12:45:34.582Z,3.13
2017-12-25T12:48:00.431Z,3.58
2017-12-25T12:50:29.718Z,3.60
2017-12-25T12:52:55.570Z,3.97
2017-12-25T12:55:21.392Z,4.00
2017-12-25T12:57:47.207Z,3.80
2017-12-25T13:00:13.029Z,4.40
2017-12-25T13:02:40.537Z,3.43
2017-12-25T13:05:06.362Z,3.35
2017-12-25T13:07:35.475Z,3.53
2017-12-25T13:10:01.302Z,4.82
2017-12-25T13:12:30.940Z,3.90
2017-12-25T13:14:56.787Z,4.82
2017-12-25T13:17:26.061Z,5.47
2017-12-25T13:19:51.888Z,4.50
2017-12-25T13:22:21.272Z,4.40
2017-12-25T13:24:47.108Z,3.47
2017-12-25T13:27:14.691Z,4.60
2017-12-25T13:29:40.506Z,4.07
2017-12-25T13:32:06.351Z,4.13
2017-12-25T13:34:32.203Z,4.20
2017-12-25T13:36:58.073Z,4.50
2017-12-25T13:39:26.109Z,4.57
2017-12-25T13:41:51.986Z,3.63
2017-12-25T13:44:20.791Z,5.23
2017-12-25T13:46:46.653Z,4.27
2017-12-25T13:49:15.797Z,5.10
2017-12-25T13:51:41.654Z,5.70
2017-12-25T13:54:11.034Z,5.57
2017-12-25T13:56:36.893Z,4.43
2017-12-25T13:59:05.764Z,5.77
2017-12-25T14:01:31.588Z,6.12
2017-12-25T14:03:59.171Z,4.70
2017-12-25T14:06:25.076Z,4.70
2017-12-25T14:08:50.968Z,5.10
2017-12-25T14:11:16.803Z,5.10
2017-12-25T14:13:42.654Z,3.33
2017-12-25T14:16:11.718Z,4.57
2017-12-25T14:18:37.549Z,4.07
2017-12-25T14:21:06.746Z,4.37
2017-12-25T14:23:32.565Z,4.82
2017-12-25T14:26:01.899Z,4.90
2017-12-25T14:28:27.781Z,5.60
2017-12-25T14:30:55.298Z,4.20
2017-12-25T14:33:21.171Z,4.35
2017-12-25T14:35:50.911Z,4.33
2017-12-25T14:38:16.769Z,6.55
2017-12-25T14:40:45.043Z,5.67
2017-12-25T14:43:10.847Z,5.47
2017-12-25T14:45:36.684Z,5.60
2017-12-25T14:48:02.516Z,4.40
2017-12-25T14:50:28.360Z,5.00
2017-12-25T14:52:56.658Z,5.47
2017-12-25T14:55:22.510Z,4.55
2017-12-25T14:57:51.561Z,4.87
2017-12-25T15:00:17.424Z,4.45
2017-12-25T15:02:47.212Z,4.90
2017-12-25T15:05:13.005Z,4.25
2017-12-25T15:07:40.737Z,4.97
2017-12-25T15:10:06.573Z,4.80
2017-12-25T15:12:35.969Z,12.10
2017-12-25T15:15:01.824Z,6.40
2017-12-25T15:17:31.008Z,6.00
2017-12-25T15:19:56.850Z,5.47
2017-12-25T15:22:22.681Z,5.10
2017-12-25T15:24:48.490Z,4.97
2017-12-25T15:27:14.318Z,4.77
2017-12-25T15:29:41.656Z,7.10
2017-12-25T15:32:07.534Z,4.45
2017-12-25T15:34:36.500Z,5.20
2017-12-25T15:37:02.352Z,6.03
2017-12-25T15:39:31.002Z,6.17
2017-12-25T15:41:56.894Z,5.95
2017-12-25T15:44:23.364Z,5.80
2017-12-25T15:46:49.190Z,4.82
2017-12-25T15:49:15.066Z,11.67
2017-12-25T15:51:43.974Z,9.07
2017-12-25T15:54:09.774Z,7.43
2017-12-25T15:56:37.417Z,7.40
2017-12-25T15:59:03.237Z,8.05
2017-12-25T16:01:29.815Z,6.93
2017-12-25T16:03:57.769Z,6.78
2017-12-25T16:08:54.433Z,7.30
2017-12-25T16:11:23.438Z,7.17
2017-12-25T16:13:49.325Z,7.60
2017-12-25T16:16:39.962Z,7.80
2017-12-25T16:19:05.821Z,8.80
2017-12-25T16:21:31.659Z,9.20
2017-12-25T16:23:57.493Z,9.20
2017-12-25T16:26:23.367Z,8.37
2017-12-25T16:28:49.233Z,8.10
2017-12-25T16:31:15.071Z,7.30
2017-12-25T16:33:40.913Z,7.03
2017-12-25T16:36:06.769Z,6.40
2017-12-25T16:38:32.638Z,7.03
2017-12-25T16:40:58.523Z,7.77
2017-12-25T16:43:24.363Z,19.57
2017-12-25T16:45:50.229Z,13.13
2017-12-25T16:48:16.054Z,13.03
2017-12-25T16:50:41.881Z,8.73
2017-12-25T16:53:07.746Z,8.30
2017-12-25T16:55:33.590Z,8.80
2017-12-25T16:57:59.482Z,9.47
2017-12-25T17:00:25.325Z,10.73
2017-12-25T17:02:51.250Z,10.30
2017-12-25T17:05:17.062Z,10.43
2017-12-25T17:07:46.459Z,10.33
2017-12-25T17:10:12.309Z,8.85
2017-12-25T17:12:38.153Z,8.10
2017-12-25T17:15:04.027Z,6.50
2017-12-25T17:17:29.872Z,7.30
2017-12-25T17:19:57.433Z,7.10
2017-12-25T17:22:23.251Z,6.50
2017-12-25T17:27:19.983Z,5.90
2017-12-25T17:29:48.973Z,6.87
2017-12-25T17:32:14.802Z,6.15
2017-12-25T17:34:41.794Z,7.00
2017-12-25T17:37:07.625Z,6.62
2017-12-25T17:39:36.912Z,8.40
2017-12-25T17:42:02.756Z,9.30
2017-12-25T17:44:32.180Z,9.30
2017-12-25T17:46:58.012Z,10.77
2017-12-25T17:49:23.811Z,12.00
2017-12-25T17:51:49.637Z,9.73
2017-12-25T17:54:15.441Z,9.47
2017-12-25T17:56:44.575Z,10.33
2017-12-25T17:59:10.409Z,10.52
2017-12-25T18:01:37.713Z,15.10
2017-12-25T18:04:03.535Z,9.00
2017-12-25T18:06:32.533Z,7.90
2017-12-25T18:08:58.350Z,7.65
2017-12-25T18:11:27.716Z,8.47
2017-12-25T18:13:53.557Z,8.32
2017-12-25T18:16:22.713Z,9.90
2017-12-25T18:18:48.505Z,11.10
2017-12-25T18:21:17.553Z,12.90
2017-12-25T18:23:43.373Z,11.85
2017-12-25T18:26:09.194Z,11.27
2017-12-25T18:28:35.069Z,10.67
2017-12-25T18:31:00.938Z,11.63
2017-12-25T18:33:29.970Z,11.70
2017-12-25T18:35:55.825Z,11.55
2017-12-25T18:38:24.825Z,11.37
2017-12-25T18:40:50.713Z,11.88
2017-12-25T18:43:19.592Z,11.00
2017-12-25T18:45:45.402Z,11.15
2017-12-25T18:48:14.480Z,10.47
2017-12-25T18:50:40.306Z,11.60
2017-12-25T18:53:07.334Z,12.13
2017-12-25T18:55:33.183Z,12.20
2017-12-25T18:58:01.627Z,11.93
2017-12-25T19:00:27.445Z,11.27
2017-12-25T19:02:53.263Z,10.30
2017-12-25T19:05:19.139Z,12.87
2017-12-25T19:07:44.982Z,16.70
2017-12-25T19:10:13.907Z,18.10
2017-12-25T19:12:39.809Z,15.15
2017-12-25T19:15:09.061Z,11.20
2017-12-25T19:17:34.897Z,11.02
2017-12-25T19:20:02.846Z,10.37
2017-12-25T19:22:28.746Z,10.40
2017-12-25T19:24:57.478Z,8.13
2017-12-25T19:27:23.350Z,8.00
2017-12-25T19:32:19.888Z,16.85
2017-12-25T19:34:47.578Z,18.50
2017-12-25T19:37:13.443Z,16.55
2017-12-25T19:39:39.294Z,15.00
2017-12-25T19:42:05.126Z,14.97
2017-12-25T19:44:30.956Z,18.57
2017-12-25T19:46:59.885Z,21.17
2017-12-25T19:49:25.754Z,19.20
2017-12-25T19:51:54.970Z,15.73
2017-12-25T19:54:20.829Z,13.98
2017-12-25T19:56:48.494Z,12.93
2017-12-25T19:59:14.343Z,12.88
2017-12-25T20:01:43.815Z,13.03
2017-12-25T20:04:09.600Z,14.48
2017-12-25T20:06:39.405Z,14.27
2017-12-25T20:09:05.231Z,14.90
2017-12-25T20:11:34.394Z,13.20
2017-12-25T20:14:00.278Z,11.30
2017-12-25T20:16:26.153Z,10.57
2017-12-25T20:18:51.970Z,9.93
2017-12-25T20:21:17.798Z,9.23
2017-12-25T20:23:44.715Z,9.40
2017-12-25T20:26:10.577Z,9.30
2017-12-25T20:28:39.873Z,8.33
2017-12-25T20:31:05.729Z,8.55
2017-12-25T20:33:34.989Z,6.90
2017-12-25T20:36:00.860Z,4.50
2017-12-25T20:38:28.676Z,3.77
2017-12-25T20:40:54.527Z,4.47
2017-12-25T20:43:23.796Z,4.07
2017-12-25T20:45:49.657Z,4.05
2017-12-25T20:48:18.239Z,5.23
2017-12-25T20:50:44.069Z,4.05
2017-12-25T20:53:09.913Z,4.03
2017-12-25T20:55:35.741Z,3.30
2017-12-25T20:58:01.555Z,3.50
2017-12-25T21:00:31.304Z,3.20
2017-12-25T21:02:57.128Z,3.60
2017-12-25T21:05:24.414Z,2.70
2017-12-25T21:07:50.269Z,2.50
2017-12-25T21:10:19.974Z,7.90
2017-12-25T21:12:45.818Z,3.97
2017-12-25T21:15:14.802Z,6.13
2017-12-25T21:17:40.634Z,5.57
2017-12-25T21:20:09.636Z,4.57
2017-12-25T21:22:35.459Z,6.07
2017-12-25T21:25:03.775Z,2.57
2017-12-25T21:30:19.949Z,4.07
2017-12-25T21:32:45.800Z,4.20
2017-12-25T21:35:11.671Z,4.23
2017-12-25T21:37:37.531Z,4.77
2017-12-25T21:40:03.352Z,5.57
2017-12-25T21:42:29.224Z,3.80
2017-12-25T21:44:55.062Z,4.20
2017-12-25T21:47:20.933Z,4.03
2017-12-25T21:49:46.790Z,4.13
2017-12-25T21:52:12.646Z,3.87
2017-12-25T21:54:38.530Z,4.20
2017-12-25T21:57:04.396Z,4.30
2017-12-25T21:59:30.232Z,7.93
2017-12-25T22:01:56.116Z,4.83
2017-12-25T22:04:21.952Z,4.07
2017-12-25T22:06:47.823Z,4.30
2017-12-25T22:09:13.722Z,3.10
2017-12-25T22:11:39.524Z,3.30
2017-12-25T22:14:05.365Z,2.87
2017-12-25T22:16:31.202Z,3.53
2017-12-25T22:18:57.099Z,3.40
2017-12-25T22:21:22.937Z,5.77
2017-12-25T22:23:50.090Z,6.93
2017-12-25T22:26:15.957Z,3.00
2017-12-25T22:28:45.154Z,3.33
2017-12-25T22:31:10.990Z,2.90
2017-12-25T22:33:39.158Z,2.67
2017-12-25T22:36:05.023Z,2.55
2017-12-25T22:38:33.640Z,2.97
2017-12-25T22:40:59.505Z,4.20
2017-12-25T22:43:25.330Z,2.00
2017-12-25T22:45:51.216Z,2.97
2017-12-25T22:48:17.051Z,2.10
2017-12-25T22:50:46.481Z,2.20
2017-12-25T22:53:12.314Z,2.42
2017-12-25T22:55:40.314Z,2.97
2017-12-25T22:58:06.220Z,2.00
2017-12-25T23:00:35.409Z,2.50
2017-12-25T23:03:01.218Z,2.10
2017-12-25T23:05:30.668Z,1.70
2017-12-25T23:07:56.496Z,1.73
2017-12-25T23:10:25.842Z,2.47
2017-12-25T23:12:51.696Z,2.17
2017-12-25T23:15:20.766Z,2.10
2017-12-25T23:17:46.599Z,2.55
2017-12-25T23:20:12.475Z,2.07
2017-12-25T23:22:38.298Z,2.03
2017-12-25T23:25:04.180Z,2.03
2017-12-25T23:27:31.269Z,2.03
2017-12-25T23:29:57.084Z,3.50
2017-12-25T23:32:26.561Z,3.00
2017-12-25T23:34:52.401Z,2.08
2017-12-25T23:37:21.395Z,2.13
2017-12-25T23:39:47.234Z,2.33
2017-12-25T23:42:16.523Z,1.87
2017-12-25T23:44:42.377Z,1.95
2017-12-25T23:47:11.632Z,2.13
2017-12-25T23:49:37.499Z,1.67
2017-12-25T23:52:04.675Z,1.83
2017-12-25T23:54:30.536Z,2.50
2017-12-25T23:56:56.393Z,2.13
2017-12-25T23:59:22.227Z,5.83
